sensor_id;sensor_type;location;lat;lon;timestamp;P1;durP1;ratioP1;P2;durP2;ratioP2
20705;SDS011;10514;49.468;11.044;2023-07-29T00:01:51;2.35;;;1.88;;
20705;SDS011;10514;49.468;11.044;2023-07-29T00:04:18;3.15;;;1.90;;
20705;SDS011;10514;49.468;11.044;2023-07-29T00:06:45;2.25;;;1.70;;
20705;SDS011;10514;49.468;11.044;2023-07-29T00:09:10;2.40;;;1.90;;
20705;SDS011;10514;49.468;11.044;2023-07-29T00:11:37;3.95;;;2.00;;
20705;SDS011;10514;49.468;11.044;2023-07-29T00:14:03;2.40;;;1.58;;
20705;SDS011;10514;49.468;11.044;2023-07-29T00:16:29;4.13;;;1.90;;
20705;SDS011;10514;49.468;11.044;2023-07-29T00:18:55;3.42;;;2.05;;
20705;SDS011;10514;49.468;11.044;2023-07-29T00:21:21;5.10;;;2.28;;
20705;SDS011;10514;49.468;11.044;2023-07-29T00:23:47;3.60;;;2.40;;
20705;SDS011;10514;49.468;11.044;2023-07-29T00:26:12;3.50;;;2.30;;
20705;SDS011;10514;49.468;11.044;2023-07-29T00:28:38;4.28;;;2.00;;
20705;SDS011;10514;49.468;11.044;2023-07-29T00:31:04;2.67;;;1.92;;
20705;SDS011;10514;49.468;11.044;2023-07-29T00:33:30;2.70;;;2.28;;
20705;SDS011;10514;49.468;11.044;2023-07-29T00:35:56;3.15;;;2.38;;
20705;SDS011;10514;49.468;11.044;2023-07-29T00:38:21;3.30;;;2.30;;
20705;SDS011;10514;49.468;11.044;2023-07-29T00:40:47;5.03;;;2.35;;
20705;SDS011;10514;49.468;11.044;2023-07-29T00:43:13;3.72;;;2.53;;
20705;SDS011;10514;49.468;11.044;2023-07-29T00:45:39;3.35;;;2.45;;
20705;SDS011;10514;49.468;11.044;2023-07-29T00:48:07;2.67;;;1.90;;
20705;SDS011;10514;49.468;11.044;2023-07-29T00:50:33;3.70;;;2.30;;
20705;SDS011;10514;49.468;11.044;2023-07-29T00:52:59;3.25;;;2.45;;
20705;SDS011;10514;49.468;11.044;2023-07-29T00:55:25;3.10;;;2.28;;
20705;SDS011;10514;49.468;11.044;2023-07-29T00:57:51;3.08;;;2.22;;
20705;SDS011;10514;49.468;11.044;2023-07-29T01:00:19;4.93;;;2.53;;
20705;SDS011;10514;49.468;11.044;2023-07-29T01:02:45;2.88;;;2.45;;
20705;SDS011;10514;49.468;11.044;2023-07-29T01:05:12;3.25;;;2.50;;
20705;SDS011;10514;49.468;11.044;2023-07-29T01:07:57;3.38;;;2.65;;
20705;SDS011;10514;49.468;11.044;2023-07-29T01:16:09;2.97;;;2.13;;
20705;SDS011;10514;49.468;11.044;2023-07-29T01:18:47;3.08;;;2.42;;
20705;SDS011;10514;49.468;11.044;2023-07-29T01:21:14;3.80;;;2.72;;
20705;SDS011;10514;49.468;11.044;2023-07-29T01:23:41;6.15;;;2.75;;
20705;SDS011;10514;49.468;11.044;2023-07-29T01:26:07;4.18;;;2.60;;
20705;SDS011;10514;49.468;11.044;2023-07-29T01:28:33;5.05;;;2.38;;
20705;SDS011;10514;49.468;11.044;2023-07-29T01:31:03;3.75;;;2.72;;
20705;SDS011;10514;49.468;11.044;2023-07-29T01:33:46;2.42;;;2.10;;
20705;SDS011;10514;49.468;11.044;2023-07-29T01:36:18;6.72;;;2.70;;
20705;SDS011;10514;49.468;11.044;2023-07-29T01:38:48;3.30;;;2.08;;
20705;SDS011;10514;49.468;11.044;2023-07-29T01:41:15;4.25;;;3.22;;
20705;SDS011;10514;49.468;11.044;2023-07-29T01:43:42;3.53;;;2.50;;
20705;SDS011;10514;49.468;11.044;2023-07-29T01:46:12;4.47;;;2.72;;
20705;SDS011;10514;49.468;11.044;2023-07-29T01:48:38;3.25;;;2.63;;
20705;SDS011;10514;49.468;11.044;2023-07-29T01:51:05;3.72;;;2.67;;
20705;SDS011;10514;49.468;11.044;2023-07-29T01:53:31;4.13;;;2.35;;
20705;SDS011;10514;49.468;11.044;2023-07-29T01:55:57;2.95;;;2.30;;
20705;SDS011;10514;49.468;11.044;2023-07-29T01:58:23;8.07;;;3.03;;
20705;SDS011;10514;49.468;11.044;2023-07-29T02:00:49;4.78;;;3.00;;
20705;SDS011;10514;49.468;11.044;2023-07-29T02:03:14;2.97;;;2.30;;
20705;SDS011;10514;49.468;11.044;2023-07-29T02:05:40;4.18;;;2.65;;
20705;SDS011;10514;49.468;11.044;2023-07-29T02:08:08;4.25;;;2.95;;
20705;SDS011;10514;49.468;11.044;2023-07-29T02:10:34;4.05;;;2.33;;
20705;SDS011;10514;49.468;11.044;2023-07-29T02:12:59;3.17;;;2.50;;
20705;SDS011;10514;49.468;11.044;2023-07-29T02:15:25;5.57;;;2.90;;
20705;SDS011;10514;49.468;11.044;2023-07-29T02:17:51;4.15;;;2.60;;
20705;SDS011;10514;49.468;11.044;2023-07-29T02:20:17;3.38;;;2.80;;
20705;SDS011;10514;49.468;11.044;2023-07-29T02:22:43;3.53;;;2.65;;
20705;SDS011;10514;49.468;11.044;2023-07-29T02:25:09;3.30;;;2.28;;
20705;SDS011;10514;49.468;11.044;2023-07-29T02:27:35;4.18;;;2.72;;
20705;SDS011;10514;49.468;11.044;2023-07-29T02:30:01;6.70;;;3.38;;
20705;SDS011;10514;49.468;11.044;2023-07-29T02:32:27;3.83;;;2.85;;
20705;SDS011;10514;49.468;11.044;2023-07-29T02:34:53;3.78;;;3.30;;
20705;SDS011;10514;49.468;11.044;2023-07-29T02:37:18;3.75;;;2.95;;
20705;SDS011;10514;49.468;11.044;2023-07-29T02:39:45;5.50;;;3.38;;
20705;SDS011;10514;49.468;11.044;2023-07-29T02:42:10;5.13;;;3.22;;
20705;SDS011;10514;49.468;11.044;2023-07-29T02:44:36;4.53;;;3.45;;
20705;SDS011;10514;49.468;11.044;2023-07-29T02:47:02;4.60;;;3.42;;
20705;SDS011;10514;49.468;11.044;2023-07-29T02:49:28;4.03;;;3.42;;
20705;SDS011;10514;49.468;11.044;2023-07-29T02:51:54;6.18;;;4.05;;
20705;SDS011;10514;49.468;11.044;2023-07-29T02:54:20;4.88;;;3.90;;
20705;SDS011;10514;49.468;11.044;2023-07-29T02:56:46;4.72;;;3.65;;
20705;SDS011;10514;49.468;11.044;2023-07-29T02:59:12;5.10;;;3.45;;
20705;SDS011;10514;49.468;11.044;2023-07-29T03:01:37;5.68;;;4.00;;
20705;SDS011;10514;49.468;11.044;2023-07-29T03:04:03;7.75;;;4.20;;
20705;SDS011;10514;49.468;11.044;2023-07-29T03:06:29;6.53;;;4.15;;
20705;SDS011;10514;49.468;11.044;2023-07-29T03:08:54;5.43;;;4.10;;
20705;SDS011;10514;49.468;11.044;2023-07-29T03:11:20;5.93;;;4.03;;
20705;SDS011;10514;49.468;11.044;2023-07-29T03:13:46;5.03;;;3.72;;
20705;SDS011;10514;49.468;11.044;2023-07-29T03:16:13;3.83;;;3.38;;
20705;SDS011;10514;49.468;11.044;2023-07-29T03:18:41;6.55;;;3.92;;
20705;SDS011;10514;49.468;11.044;2023-07-29T03:21:07;3.38;;;2.92;;
20705;SDS011;10514;49.468;11.044;2023-07-29T03:23:33;5.55;;;3.70;;
20705;SDS011;10514;49.468;11.044;2023-07-29T03:26:00;6.47;;;3.85;;
20705;SDS011;10514;49.468;11.044;2023-07-29T03:28:29;5.03;;;3.63;;
20705;SDS011;10514;49.468;11.044;2023-07-29T03:30:57;4.93;;;3.70;;
20705;SDS011;10514;49.468;11.044;2023-07-29T03:33:24;6.38;;;5.10;;
20705;SDS011;10514;49.468;11.044;2023-07-29T03:35:51;10.23;;;7.55;;
20705;SDS011;10514;49.468;11.044;2023-07-29T03:38:17;11.32;;;8.43;;
20705;SDS011;10514;49.468;11.044;2023-07-29T03:40:42;9.90;;;8.57;;
20705;SDS011;10514;49.468;11.044;2023-07-29T03:43:08;12.90;;;10.68;;
20705;SDS011;10514;49.468;11.044;2023-07-29T03:45:35;13.68;;;12.18;;
20705;SDS011;10514;49.468;11.044;2023-07-29T03:48:02;14.52;;;13.13;;
20705;SDS011;10514;49.468;11.044;2023-07-29T03:50:28;15.57;;;13.93;;
20705;SDS011;10514;49.468;11.044;2023-07-29T03:52:54;15.57;;;12.93;;
20705;SDS011;10514;49.468;11.044;2023-07-29T03:55:20;14.50;;;12.10;;
20705;SDS011;10514;49.468;11.044;2023-07-29T03:57:46;13.30;;;11.07;;
20705;SDS011;10514;49.468;11.044;2023-07-29T04:00:11;10.82;;;9.65;;
20705;SDS011;10514;49.468;11.044;2023-07-29T04:02:37;10.20;;;9.15;;
20705;SDS011;10514;49.468;11.044;2023-07-29T04:05:04;8.52;;;7.55;;
20705;SDS011;10514;49.468;11.044;2023-07-29T04:07:30;7.55;;;6.60;;
20705;SDS011;10514;49.468;11.044;2023-07-29T04:09:56;7.40;;;5.68;;
20705;SDS011;10514;49.468;11.044;2023-07-29T04:12:22;7.50;;;5.95;;
20705;SDS011;10514;49.468;11.044;2023-07-29T04:14:48;6.75;;;5.28;;
20705;SDS011;10514;49.468;11.044;2023-07-29T04:17:14;5.40;;;4.43;;
20705;SDS011;10514;49.468;11.044;2023-07-29T04:19:40;6.40;;;4.72;;
20705;SDS011;10514;49.468;11.044;2023-07-29T04:22:05;5.45;;;4.10;;
20705;SDS011;10514;49.468;11.044;2023-07-29T04:24:31;5.35;;;4.18;;
20705;SDS011;10514;49.468;11.044;2023-07-29T04:26:57;6.38;;;4.60;;
20705;SDS011;10514;49.468;11.044;2023-07-29T04:29:22;5.13;;;4.38;;
20705;SDS011;10514;49.468;11.044;2023-07-29T04:31:49;5.80;;;4.05;;
20705;SDS011;10514;49.468;11.044;2023-07-29T04:34:15;5.43;;;4.35;;
20705;SDS011;10514;49.468;11.044;2023-07-29T04:36:40;7.13;;;4.10;;
20705;SDS011;10514;49.468;11.044;2023-07-29T04:39:06;5.55;;;3.92;;
20705;SDS011;10514;49.468;11.044;2023-07-29T04:41:32;5.20;;;3.85;;
20705;SDS011;10514;49.468;11.044;2023-07-29T04:43:58;5.88;;;4.15;;
20705;SDS011;10514;49.468;11.044;2023-07-29T04:46:23;5.85;;;3.38;;
20705;SDS011;10514;49.468;11.044;2023-07-29T04:48:49;6.32;;;4.60;;
20705;SDS011;10514;49.468;11.044;2023-07-29T04:51:15;4.78;;;4.15;;
20705;SDS011;10514;49.468;11.044;2023-07-29T04:53:41;4.53;;;3.78;;
20705;SDS011;10514;49.468;11.044;2023-07-29T04:56:06;6.22;;;3.30;;
20705;SDS011;10514;49.468;11.044;2023-07-29T04:58:32;7.38;;;3.00;;
20705;SDS011;10514;49.468;11.044;2023-07-29T05:01:00;4.40;;;3.13;;
20705;SDS011;10514;49.468;11.044;2023-07-29T05:03:28;3.80;;;2.92;;
20705;SDS011;10514;49.468;11.044;2023-07-29T05:05:54;6.43;;;2.55;;
20705;SDS011;10514;49.468;11.044;2023-07-29T05:08:21;5.85;;;2.90;;
20705;SDS011;10514;49.468;11.044;2023-07-29T05:10:50;4.60;;;2.50;;
20705;SDS011;10514;49.468;11.044;2023-07-29T05:13:17;4.63;;;2.63;;
20705;SDS011;10514;49.468;11.044;2023-07-29T05:15:43;5.38;;;2.85;;
20705;SDS011;10514;49.468;11.044;2023-07-29T05:18:09;3.08;;;2.25;;
20705;SDS011;10514;49.468;11.044;2023-07-29T05:20:34;4.63;;;3.00;;
20705;SDS011;10514;49.468;11.044;2023-07-29T05:23:00;4.25;;;2.03;;
20705;SDS011;10514;49.468;11.044;2023-07-29T05:25:26;4.85;;;2.53;;
20705;SDS011;10514;49.468;11.044;2023-07-29T05:27:52;3.25;;;2.03;;
20705;SDS011;10514;49.468;11.044;2023-07-29T05:30:17;6.63;;;2.30;;
20705;SDS011;10514;49.468;11.044;2023-07-29T05:32:43;3.22;;;1.98;;
20705;SDS011;10514;49.468;11.044;2023-07-29T05:35:09;4.78;;;1.98;;
20705;SDS011;10514;49.468;11.044;2023-07-29T05:37:35;2.65;;;1.70;;
20705;SDS011;10514;49.468;11.044;2023-07-29T05:40:02;2.47;;;1.88;;
20705;SDS011;10514;49.468;11.044;2023-07-29T05:42:29;2.50;;;2.20;;
20705;SDS011;10514;49.468;11.044;2023-07-29T05:44:54;4.07;;;2.25;;
20705;SDS011;10514;49.468;11.044;2023-07-29T05:47:20;2.30;;;1.88;;
20705;SDS011;10514;49.468;11.044;2023-07-29T05:49:45;4.13;;;2.03;;
20705;SDS011;10514;49.468;11.044;2023-07-29T05:52:11;3.75;;;1.90;;
20705;SDS011;10514;49.468;11.044;2023-07-29T05:54:37;2.95;;;1.95;;
20705;SDS011;10514;49.468;11.044;2023-07-29T05:57:03;3.15;;;1.83;;
20705;SDS011;10514;49.468;11.044;2023-07-29T05:59:29;2.58;;;1.55;;
20705;SDS011;10514;49.468;11.044;2023-07-29T06:01:54;5.03;;;2.30;;
20705;SDS011;10514;49.468;11.044;2023-07-29T06:04:20;3.50;;;1.73;;
20705;SDS011;10514;49.468;11.044;2023-07-29T06:06:46;3.42;;;1.88;;
20705;SDS011;10514;49.468;11.044;2023-07-29T06:09:12;4.85;;;2.00;;
20705;SDS011;10514;49.468;11.044;2023-07-29T06:11:38;3.08;;;1.95;;
20705;SDS011;10514;49.468;11.044;2023-07-29T06:14:03;4.82;;;2.35;;
20705;SDS011;10514;49.468;11.044;2023-07-29T06:16:29;3.05;;;2.00;;
20705;SDS011;10514;49.468;11.044;2023-07-29T06:18:55;2.92;;;2.10;;
20705;SDS011;10514;49.468;11.044;2023-07-29T06:21:21;2.65;;;2.08;;
20705;SDS011;10514;49.468;11.044;2023-07-29T06:23:46;7.78;;;2.50;;
20705;SDS011;10514;49.468;11.044;2023-07-29T06:26:12;5.00;;;2.28;;
20705;SDS011;10514;49.468;11.044;2023-07-29T06:28:38;5.35;;;2.55;;
20705;SDS011;10514;49.468;11.044;2023-07-29T06:31:03;2.67;;;1.70;;
20705;SDS011;10514;49.468;11.044;2023-07-29T06:33:29;6.28;;;2.53;;
20705;SDS011;10514;49.468;11.044;2023-07-29T06:35:55;8.55;;;2.80;;
20705;SDS011;10514;49.468;11.044;2023-07-29T06:38:20;7.35;;;2.33;;
20705;SDS011;10514;49.468;11.044;2023-07-29T06:40:50;6.20;;;2.50;;
20705;SDS011;10514;49.468;11.044;2023-07-29T06:43:15;4.43;;;2.88;;
20705;SDS011;10514;49.468;11.044;2023-07-29T06:45:41;13.38;;;3.25;;
20705;SDS011;10514;49.468;11.044;2023-07-29T06:48:07;6.00;;;3.00;;
20705;SDS011;10514;49.468;11.044;2023-07-29T06:50:33;4.82;;;2.47;;
20705;SDS011;10514;49.468;11.044;2023-07-29T06:52:58;14.95;;;3.17;;
20705;SDS011;10514;49.468;11.044;2023-07-29T06:55:24;2.83;;;1.80;;
20705;SDS011;10514;49.468;11.044;2023-07-29T06:57:49;4.50;;;1.90;;
20705;SDS011;10514;49.468;11.044;2023-07-29T07:00:15;5.40;;;1.95;;
20705;SDS011;10514;49.468;11.044;2023-07-29T07:02:41;5.07;;;2.10;;
20705;SDS011;10514;49.468;11.044;2023-07-29T07:05:07;3.60;;;2.00;;
20705;SDS011;10514;49.468;11.044;2023-07-29T07:07:32;3.10;;;1.92;;
20705;SDS011;10514;49.468;11.044;2023-07-29T07:09:58;4.15;;;1.88;;
20705;SDS011;10514;49.468;11.044;2023-07-29T07:12:24;3.42;;;2.10;;
20705;SDS011;10514;49.468;11.044;2023-07-29T07:14:49;5.03;;;2.00;;
20705;SDS011;10514;49.468;11.044;2023-07-29T07:17:15;4.22;;;2.00;;
20705;SDS011;10514;49.468;11.044;2023-07-29T07:19:40;3.08;;;1.90;;
20705;SDS011;10514;49.468;11.044;2023-07-29T07:22:06;4.38;;;1.88;;
20705;SDS011;10514;49.468;11.044;2023-07-29T07:24:31;4.88;;;1.85;;
20705;SDS011;10514;49.468;11.044;2023-07-29T07:26:57;5.40;;;2.00;;
20705;SDS011;10514;49.468;11.044;2023-07-29T07:29:23;2.63;;;1.63;;
20705;SDS011;10514;49.468;11.044;2023-07-29T07:31:50;4.45;;;2.20;;
20705;SDS011;10514;49.468;11.044;2023-07-29T07:34:17;2.33;;;1.58;;
20705;SDS011;10514;49.468;11.044;2023-07-29T07:36:43;3.75;;;2.15;;
20705;SDS011;10514;49.468;11.044;2023-07-29T07:39:09;6.07;;;2.25;;
20705;SDS011;10514;49.468;11.044;2023-07-29T07:41:35;5.10;;;2.22;;
20705;SDS011;10514;49.468;11.044;2023-07-29T07:44:01;3.50;;;1.83;;
20705;SDS011;10514;49.468;11.044;2023-07-29T07:46:27;4.20;;;2.17;;
20705;SDS011;10514;49.468;11.044;2023-07-29T07:48:53;4.90;;;2.55;;
20705;SDS011;10514;49.468;11.044;2023-07-29T07:51:19;4.05;;;2.58;;
20705;SDS011;10514;49.468;11.044;2023-07-29T07:53:44;5.22;;;2.30;;
20705;SDS011;10514;49.468;11.044;2023-07-29T07:56:10;4.82;;;2.55;;
20705;SDS011;10514;49.468;11.044;2023-07-29T07:58:35;3.45;;;2.40;;
20705;SDS011;10514;49.468;11.044;2023-07-29T08:01:04;5.45;;;3.00;;
20705;SDS011;10514;49.468;11.044;2023-07-29T08:03:31;5.68;;;2.95;;
20705;SDS011;10514;49.468;11.044;2023-07-29T08:05:57;5.35;;;3.67;;
20705;SDS011;10514;49.468;11.044;2023-07-29T08:08:23;5.55;;;3.35;;
20705;SDS011;10514;49.468;11.044;2023-07-29T08:10:49;8.60;;;3.40;;
20705;SDS011;10514;49.468;11.044;2023-07-29T08:13:14;8.18;;;3.92;;
20705;SDS011;10514;49.468;11.044;2023-07-29T08:15:40;8.82;;;4.13;;
20705;SDS011;10514;49.468;11.044;2023-07-29T08:18:08;7.88;;;3.25;;
20705;SDS011;10514;49.468;11.044;2023-07-29T08:20:34;6.30;;;3.58;;
20705;SDS011;10514;49.468;11.044;2023-07-29T08:22:59;4.03;;;2.80;;
20705;SDS011;10514;49.468;11.044;2023-07-29T08:25:25;5.68;;;3.20;;
20705;SDS011;10514;49.468;11.044;2023-07-29T08:27:51;8.93;;;4.18;;
20705;SDS011;10514;49.468;11.044;2023-07-29T08:30:16;7.22;;;3.72;;
20705;SDS011;10514;49.468;11.044;2023-07-29T08:32:43;7.75;;;3.95;;
20705;SDS011;10514;49.468;11.044;2023-07-29T08:35:09;7.72;;;4.30;;
20705;SDS011;10514;49.468;11.044;2023-07-29T08:37:35;4.80;;;3.47;;
20705;SDS011;10514;49.468;11.044;2023-07-29T08:40:01;6.35;;;4.28;;
20705;SDS011;10514;49.468;11.044;2023-07-29T08:42:28;7.60;;;3.70;;
20705;SDS011;10514;49.468;11.044;2023-07-29T08:44:56;5.90;;;4.13;;
20705;SDS011;10514;49.468;11.044;2023-07-29T08:47:26;5.18;;;3.63;;
20705;SDS011;10514;49.468;11.044;2023-07-29T08:49:52;9.88;;;3.70;;
20705;SDS011;10514;49.468;11.044;2023-07-29T08:52:18;4.45;;;3.40;;
20705;SDS011;10514;49.468;11.044;2023-07-29T08:54:45;4.00;;;3.00;;
20705;SDS011;10514;49.468;11.044;2023-07-29T08:57:11;3.33;;;2.17;;
20705;SDS011;10514;49.468;11.044;2023-07-29T08:59:39;2.65;;;1.40;;
20705;SDS011;10514;49.468;11.044;2023-07-29T09:02:05;5.50;;;1.50;;
20705;SDS011;10514;49.468;11.044;2023-07-29T09:04:30;1.85;;;1.60;;
20705;SDS011;10514;49.468;11.044;2023-07-29T09:06:56;2.72;;;1.30;;
20705;SDS011;10514;49.468;11.044;2023-07-29T09:09:24;2.35;;;1.35;;
20705;SDS011;10514;49.468;11.044;2023-07-29T09:11:50;2.38;;;1.33;;
20705;SDS011;10514;49.468;11.044;2023-07-29T09:14:16;2.03;;;1.48;;
20705;SDS011;10514;49.468;11.044;2023-07-29T09:16:42;4.07;;;1.58;;
20705;SDS011;10514;49.468;11.044;2023-07-29T09:19:08;1.75;;;1.13;;
20705;SDS011;10514;49.468;11.044;2023-07-29T09:21:34;7.25;;;1.60;;
20705;SDS011;10514;49.468;11.044;2023-07-29T09:24:04;2.40;;;1.45;;
20705;SDS011;10514;49.468;11.044;2023-07-29T09:26:32;4.57;;;1.67;;
20705;SDS011;10514;49.468;11.044;2023-07-29T09:28:59;4.38;;;1.52;;
20705;SDS011;10514;49.468;11.044;2023-07-29T09:31:25;3.33;;;2.00;;
20705;SDS011;10514;49.468;11.044;2023-07-29T09:33:58;3.22;;;2.28;;
20705;SDS011;10514;49.468;11.044;2023-07-29T09:36:26;3.83;;;2.50;;
20705;SDS011;10514;49.468;11.044;2023-07-29T09:38:52;3.47;;;2.22;;
20705;SDS011;10514;49.468;11.044;2023-07-29T09:41:20;3.70;;;2.00;;
20705;SDS011;10514;49.468;11.044;2023-07-29T09:43:57;3.60;;;1.75;;
20705;SDS011;10514;49.468;11.044;2023-07-29T09:46:24;3.45;;;1.98;;
20705;SDS011;10514;49.468;11.044;2023-07-29T09:48:52;3.88;;;2.05;;
20705;SDS011;10514;49.468;11.044;2023-07-29T09:51:19;3.05;;;1.90;;
20705;SDS011;10514;49.468;11.044;2023-07-29T09:53:46;3.10;;;1.80;;
20705;SDS011;10514;49.468;11.044;2023-07-29T09:56:13;2.83;;;2.10;;
20705;SDS011;10514;49.468;11.044;2023-07-29T09:58:39;3.00;;;2.10;;
20705;SDS011;10514;49.468;11.044;2023-07-29T10:01:06;2.95;;;2.25;;
20705;SDS011;10514;49.468;11.044;2023-07-29T10:03:32;5.22;;;2.45;;
20705;SDS011;10514;49.468;11.044;2023-07-29T10:06:00;3.25;;;2.50;;
20705;SDS011;10514;49.468;11.044;2023-07-29T10:08:27;6.53;;;2.85;;
20705;SDS011;10514;49.468;11.044;2023-07-29T10:10:55;5.15;;;3.45;;
20705;SDS011;10514;49.468;11.044;2023-07-29T10:13:21;3.20;;;2.45;;
20705;SDS011;10514;49.468;11.044;2023-07-29T10:15:47;3.28;;;2.78;;
20705;SDS011;10514;49.468;11.044;2023-07-29T10:18:13;6.95;;;3.30;;
20705;SDS011;10514;49.468;11.044;2023-07-29T10:20:41;4.70;;;2.63;;
20705;SDS011;10514;49.468;11.044;2023-07-29T10:23:08;4.55;;;2.75;;
20705;SDS011;10514;49.468;11.044;2023-07-29T10:25:37;3.45;;;2.30;;
20705;SDS011;10514;49.468;11.044;2023-07-29T10:28:05;6.10;;;2.50;;
20705;SDS011;10514;49.468;11.044;2023-07-29T10:30:32;4.25;;;2.70;;
20705;SDS011;10514;49.468;11.044;2023-07-29T10:32:58;5.30;;;2.53;;
20705;SDS011;10514;49.468;11.044;2023-07-29T10:35:29;4.88;;;2.78;;
20705;SDS011;10514;49.468;11.044;2023-07-29T10:37:55;3.20;;;2.40;;
20705;SDS011;10514;49.468;11.044;2023-07-29T10:40:21;5.82;;;3.15;;
20705;SDS011;10514;49.468;11.044;2023-07-29T10:43:00;7.43;;;2.67;;
20705;SDS011;10514;49.468;11.044;2023-07-29T10:45:35;4.43;;;2.83;;
20705;SDS011;10514;49.468;11.044;2023-07-29T10:48:11;4.32;;;2.28;;
20705;SDS011;10514;49.468;11.044;2023-07-29T10:50:37;7.15;;;3.10;;
20705;SDS011;10514;49.468;11.044;2023-07-29T10:53:04;4.88;;;2.08;;
20705;SDS011;10514;49.468;11.044;2023-07-29T10:55:31;3.35;;;1.60;;
20705;SDS011;10514;49.468;11.044;2023-07-29T10:58:08;2.60;;;1.70;;
20705;SDS011;10514;49.468;11.044;2023-07-29T11:00:38;7.35;;;1.38;;
20705;SDS011;10514;49.468;11.044;2023-07-29T11:03:05;2.92;;;1.65;;
20705;SDS011;10514;49.468;11.044;2023-07-29T11:13:31;2.05;;;1.35;;
20705;SDS011;10514;49.468;11.044;2023-07-29T11:15:58;2.60;;;1.30;;
20705;SDS011;10514;49.468;11.044;2023-07-29T11:18:28;3.45;;;1.48;;
20705;SDS011;10514;49.468;11.044;2023-07-29T11:20:55;1.83;;;1.30;;
20705;SDS011;10514;49.468;11.044;2023-07-29T11:23:55;3.28;;;1.20;;
20705;SDS011;10514;49.468;11.044;2023-07-29T11:26:13;5.72;;;1.10;;
20705;SDS011;10514;49.468;11.044;2023-07-29T11:28:39;2.05;;;1.25;;
20705;SDS011;10514;49.468;11.044;2023-07-29T11:31:05;1.77;;;1.20;;
20705;SDS011;10514;49.468;11.044;2023-07-29T11:33:31;1.55;;;1.10;;
20705;SDS011;10514;49.468;11.044;2023-07-29T11:35:57;1.95;;;1.02;;
20705;SDS011;10514;49.468;11.044;2023-07-29T11:38:23;1.88;;;1.48;;
20705;SDS011;10514;49.468;11.044;2023-07-29T11:40:56;2.90;;;1.17;;
20705;SDS011;10514;49.468;11.044;2023-07-29T11:43:24;1.52;;;1.10;;
20705;SDS011;10514;49.468;11.044;2023-07-29T11:45:51;2.10;;;1.27;;
20705;SDS011;10514;49.468;11.044;2023-07-29T11:48:17;1.35;;;1.15;;
20705;SDS011;10514;49.468;11.044;2023-07-29T11:50:43;3.40;;;1.30;;
20705;SDS011;10514;49.468;11.044;2023-07-29T11:53:10;2.78;;;1.25;;
20705;SDS011;10514;49.468;11.044;2023-07-29T11:55:36;3.67;;;1.45;;
20705;SDS011;10514;49.468;11.044;2023-07-29T11:58:02;1.83;;;1.10;;
20705;SDS011;10514;49.468;11.044;2023-07-29T12:00:28;3.15;;;1.30;;
20705;SDS011;10514;49.468;11.044;2023-07-29T12:02:54;1.67;;;1.08;;
20705;SDS011;10514;49.468;11.044;2023-07-29T12:05:21;2.90;;;1.40;;
20705;SDS011;10514;49.468;11.044;2023-07-29T12:07:48;1.60;;;1.25;;
20705;SDS011;10514;49.468;11.044;2023-07-29T12:10:14;3.00;;;1.40;;
20705;SDS011;10514;49.468;11.044;2023-07-29T12:12:43;2.42;;;1.23;;
20705;SDS011;10514;49.468;11.044;2023-07-29T12:15:13;1.40;;;1.30;;
20705;SDS011;10514;49.468;11.044;2023-07-29T12:17:47;3.17;;;1.35;;
20705;SDS011;10514;49.468;11.044;2023-07-29T12:20:12;2.10;;;1.30;;
20705;SDS011;10514;49.468;11.044;2023-07-29T12:22:38;2.08;;;1.30;;
20705;SDS011;10514;49.468;11.044;2023-07-29T12:25:04;2.67;;;1.33;;
20705;SDS011;10514;49.468;11.044;2023-07-29T12:27:31;1.83;;;1.00;;
20705;SDS011;10514;49.468;11.044;2023-07-29T12:29:56;3.45;;;1.17;;
20705;SDS011;10514;49.468;11.044;2023-07-29T12:32:24;1.10;;;1.00;;
20705;SDS011;10514;49.468;11.044;2023-07-29T12:34:52;1.80;;;1.25;;
20705;SDS011;10514;49.468;11.044;2023-07-29T12:37:18;1.40;;;1.10;;
20705;SDS011;10514;49.468;11.044;2023-07-29T12:39:44;2.30;;;1.15;;
20705;SDS011;10514;49.468;11.044;2023-07-29T12:42:10;2.83;;;1.40;;
20705;SDS011;10514;49.468;11.044;2023-07-29T12:44:36;3.85;;;1.85;;
20705;SDS011;10514;49.468;11.044;2023-07-29T12:47:04;4.05;;;1.05;;
20705;SDS011;10514;49.468;11.044;2023-07-29T12:49:30;2.65;;;1.10;;
20705;SDS011;10514;49.468;11.044;2023-07-29T12:51:57;2.63;;;1.23;;
20705;SDS011;10514;49.468;11.044;2023-07-29T12:54:23;1.55;;;1.30;;
20705;SDS011;10514;49.468;11.044;2023-07-29T12:56:48;3.92;;;1.30;;
20705;SDS011;10514;49.468;11.044;2023-07-29T12:59:14;2.25;;;1.27;;
20705;SDS011;10514;49.468;11.044;2023-07-29T13:01:40;1.90;;;1.13;;
20705;SDS011;10514;49.468;11.044;2023-07-29T13:04:05;1.83;;;1.10;;
20705;SDS011;10514;49.468;11.044;2023-07-29T13:06:31;2.17;;;1.20;;
20705;SDS011;10514;49.468;11.044;2023-07-29T13:08:56;3.53;;;1.20;;
20705;SDS011;10514;49.468;11.044;2023-07-29T13:11:22;2.33;;;1.40;;
20705;SDS011;10514;49.468;11.044;2023-07-29T13:13:49;4.15;;;1.20;;
20705;SDS011;10514;49.468;11.044;2023-07-29T13:16:14;1.95;;;1.20;;
20705;SDS011;10514;49.468;11.044;2023-07-29T13:18:40;2.00;;;1.20;;
20705;SDS011;10514;49.468;11.044;2023-07-29T13:21:06;1.05;;;0.95;;
20705;SDS011;10514;49.468;11.044;2023-07-29T13:23:31;2.25;;;1.10;;
20705;SDS011;10514;49.468;11.044;2023-07-29T13:25:57;1.52;;;1.00;;
20705;SDS011;10514;49.468;11.044;2023-07-29T13:28:23;2.22;;;1.10;;
20705;SDS011;10514;49.468;11.044;2023-07-29T13:30:48;1.20;;;1.10;;
20705;SDS011;10514;49.468;11.044;2023-07-29T13:33:14;3.63;;;1.40;;
20705;SDS011;10514;49.468;11.044;2023-07-29T13:35:40;1.00;;;0.90;;
20705;SDS011;10514;49.468;11.044;2023-07-29T13:38:06;1.92;;;0.93;;
20705;SDS011;10514;49.468;11.044;2023-07-29T13:40:32;2.20;;;0.90;;
20705;SDS011;10514;49.468;11.044;2023-07-29T13:42:57;2.22;;;1.10;;
20705;SDS011;10514;49.468;11.044;2023-07-29T13:45:23;1.58;;;1.00;;
20705;SDS011;10514;49.468;11.044;2023-07-29T13:47:48;1.50;;;1.10;;
20705;SDS011;10514;49.468;11.044;2023-07-29T13:50:15;2.42;;;1.23;;
20705;SDS011;10514;49.468;11.044;2023-07-29T13:52:41;1.63;;;1.20;;
20705;SDS011;10514;49.468;11.044;2023-07-29T13:55:06;1.83;;;1.20;;
20705;SDS011;10514;49.468;11.044;2023-07-29T13:57:32;1.05;;;0.85;;
20705;SDS011;10514;49.468;11.044;2023-07-29T13:59:58;1.98;;;1.00;;
20705;SDS011;10514;49.468;11.044;2023-07-29T14:02:24;1.10;;;0.90;;
20705;SDS011;10514;49.468;11.044;2023-07-29T14:04:51;3.78;;;1.02;;
20705;SDS011;10514;49.468;11.044;2023-07-29T14:07:17;1.88;;;0.90;;
20705;SDS011;10514;49.468;11.044;2023-07-29T14:09:43;3.22;;;1.10;;
20705;SDS011;10514;49.468;11.044;2023-07-29T14:12:09;1.10;;;0.77;;
20705;SDS011;10514;49.468;11.044;2023-07-29T14:14:37;3.25;;;0.95;;
20705;SDS011;10514;49.468;11.044;2023-07-29T14:17:03;1.95;;;1.08;;
20705;SDS011;10514;49.468;11.044;2023-07-29T14:19:29;2.72;;;0.80;;
20705;SDS011;10514;49.468;11.044;2023-07-29T14:21:55;1.42;;;0.88;;
20705;SDS011;10514;49.468;11.044;2023-07-29T14:24:20;1.30;;;0.80;;
20705;SDS011;10514;49.468;11.044;2023-07-29T14:26:47;1.58;;;0.90;;
20705;SDS011;10514;49.468;11.044;2023-07-29T14:29:13;1.08;;;0.68;;
20705;SDS011;10514;49.468;11.044;2023-07-29T14:31:38;0.73;;;0.57;;
20705;SDS011;10514;49.468;11.044;2023-07-29T14:34:04;2.50;;;0.90;;
20705;SDS011;10514;49.468;11.044;2023-07-29T14:36:30;1.13;;;0.90;;
20705;SDS011;10514;49.468;11.044;2023-07-29T14:38:56;2.25;;;0.95;;
20705;SDS011;10514;49.468;11.044;2023-07-29T14:41:22;0.90;;;0.70;;
20705;SDS011;10514;49.468;11.044;2023-07-29T14:43:47;1.60;;;0.70;;